Time;durP1;ratioP1;P1;durP2;ratioP2;P2;SDS_P1;SDS_P2;PMS_P1;PMS_P2;Temp;Humidity;BMP_temperature;BMP_pressure;BME280_temperature;BME280_humidity;BME280_pressure;Samples;Min_cycle;Max_cycle;Signal;HPM_P1;HPM_P2
2021/12/27 00:00:40;;;;;;;0.80;0.80;;;;;;;;;;4989638;28;20184;-72
2021/12/27 00:03:05;;;;;;;0.67;0.67;;;;;;;;;;4988633;28;20175;-72
2021/12/27 00:05:30;;;;;;;0.70;0.70;;;;;;;;;;4990041;28;20211;-72
2021/12/27 00:07:56;;;;;;;0.80;0.80;;;;;;;;;;4990199;28;20179;-72
2021/12/27 00:10:22;;;;;;;0.70;0.70;;;;;;;;;;4987621;28;20244;-72
2021/12/27 00:12:48;;;;;;;0.63;0.63;;;;;;;;;;4990203;28;20182;-72
2021/12/27 00:15:16;;;;;;;0.60;0.60;;;;;;;;;;4987791;28;20177;-72
2021/12/27 00:17:42;;;;;;;0.53;0.53;;;;;;;;;;4991292;28;20176;-72
2021/12/27 00:20:08;;;;;;;0.90;0.80;;;;;;;;;;4989289;28;20245;-74
2021/12/27 00:22:33;;;;;;;0.80;0.80;;;;;;;;;;4988593;28;20269;-74
2021/12/27 00:24:58;;;;;;;0.73;0.73;;;;;;;;;;4988840;28;20283;-74
2021/12/27 00:27:25;;;;;;;2.03;0.90;;;;;;;;;;4989123;28;20210;-74
2021/12/27 00:29:52;;;;;;;23.23;2.00;;;;;;;;;;4989267;28;20170;-74
2021/12/27 00:32:17;;;;;;;15.40;1.90;;;;;;;;;;4986795;28;20176;-74
2021/12/27 00:34:42;;;;;;;43.70;3.60;;;;;;;;;;4990617;28;20215;-74
2021/12/27 00:37:08;;;;;;;54.23;3.70;;;;;;;;;;4988881;28;20191;-74
2021/12/27 00:39:33;;;;;;;50.17;3.80;;;;;;;;;;4988326;28;20182;-74
2021/12/27 00:41:59;;;;;;;44.90;3.97;;;;;;;;;;4989151;28;20182;-74
2021/12/27 00:44:24;;;;;;;19.30;2.60;;;;;;;;;;4988284;28;20436;-74
2021/12/27 00:46:50;;;;;;;21.17;2.80;;;;;;;;;;4989257;28;20238;-74
2021/12/27 00:49:15;;;;;;;52.13;4.80;;;;;;;;;;4989094;28;20169;-74
2021/12/27 00:51:40;;;;;;;47.57;4.70;;;;;;;;;;4990270;28;20215;-74
2021/12/27 00:54:05;;;;;;;34.10;4.77;;;;;;;;;;4989485;28;20176;-74
2021/12/27 00:56:31;;;;;;;60.30;5.73;;;;;;;;;;4988167;28;20182;-74
2021/12/27 00:58:56;;;;;;;32.50;4.87;;;;;;;;;;4989262;28;20188;-74
2021/12/27 01:01:21;;;;;;;71.50;5.97;;;;;;;;;;4987969;28;20261;-74
2021/12/27 01:03:46;;;;;;;55.80;5.00;;;;;;;;;;4989498;28;20180;-74
2021/12/27 01:06:11;;;;;;;32.90;3.77;;;;;;;;;;4988160;28;20200;-74
2021/12/27 01:08:37;;;;;;;24.23;3.43;;;;;;;;;;4991717;28;20211;-74
2021/12/27 01:13:59;;;;;;;13.43;2.67;;;;;;;;;;4991959;28;20183;-74
2021/12/27 01:16:24;;;;;;;2.37;2.00;;;;;;;;;;4990433;28;20184;-74
2021/12/27 01:18:52;;;;;;;1.90;1.70;;;;;;;;;;4994056;28;20296;-74
2021/12/27 01:21:19;;;;;;;1.40;1.30;;;;;;;;;;4991768;28;20174;-74
2021/12/27 01:23:45;;;;;;;2.00;1.40;;;;;;;;;;4992241;28;20180;-74
2021/12/27 01:26:10;;;;;;;2.20;1.03;;;;;;;;;;4992539;28;20291;-74
2021/12/27 01:28:36;;;;;;;1.30;1.20;;;;;;;;;;4990268;28;20180;-74
2021/12/27 01:31:01;;;;;;;1.13;1.03;;;;;;;;;;4990602;28;20187;-74
2021/12/27 01:33:30;;;;;;;1.83;1.13;;;;;;;;;;4991883;28;20184;-74
2021/12/27 01:35:56;;;;;;;0.93;0.90;;;;;;;;;;4991928;28;20184;-74
2021/12/27 01:38:21;;;;;;;1.40;0.83;;;;;;;;;;4995435;28;20187;-74
2021/12/27 01:40:47;;;;;;;1.13;1.07;;;;;;;;;;4992412;28;20275;-74
2021/12/27 01:43:14;;;;;;;1.17;0.90;;;;;;;;;;4994577;28;20199;-74
2021/12/27 01:45:51;;;;;;;1.50;1.20;;;;;;;;;;4993970;28;20228;-74
2021/12/27 01:48:20;;;;;;;0.87;0.87;;;;;;;;;;4994977;28;20180;-74
2021/12/27 01:50:46;;;;;;;1.13;0.80;;;;;;;;;;4993927;28;20318;-74
2021/12/27 01:53:12;;;;;;;1.10;1.00;;;;;;;;;;4993301;28;20232;-74
2021/12/27 01:55:38;;;;;;;1.40;1.00;;;;;;;;;;4994194;28;20242;-74
2021/12/27 01:58:03;;;;;;;1.20;1.10;;;;;;;;;;4994681;28;20197;-74
2021/12/27 02:00:28;;;;;;;1.03;0.93;;;;;;;;;;4993939;28;20273;-74
2021/12/27 02:02:53;;;;;;;2.23;1.57;;;;;;;;;;4992053;28;20509;-74
2021/12/27 02:05:19;;;;;;;2.07;1.03;;;;;;;;;;4994869;28;20358;-74
2021/12/27 02:07:44;;;;;;;2.80;1.53;;;;;;;;;;4994054;28;20211;-74
2021/12/27 02:10:10;;;;;;;2.37;1.30;;;;;;;;;;4991814;28;20181;-74
2021/12/27 02:12:35;;;;;;;1.60;1.10;;;;;;;;;;4998156;28;20176;-74
2021/12/27 02:15:07;;;;;;;1.40;1.30;;;;;;;;;;4994493;28;20187;-74
2021/12/27 02:17:33;;;;;;;1.73;1.47;;;;;;;;;;4992315;28;20184;-74
2021/12/27 02:19:58;;;;;;;1.60;1.47;;;;;;;;;;4993374;28;20188;-74
2021/12/27 02:22:23;;;;;;;1.50;1.40;;;;;;;;;;4993585;28;20180;-74
2021/12/27 02:24:48;;;;;;;1.70;1.60;;;;;;;;;;4990898;28;20236;-74
2021/12/27 02:27:14;;;;;;;1.97;1.77;;;;;;;;;;4992933;28;20176;-74
2021/12/27 02:29:39;;;;;;;2.43;2.23;;;;;;;;;;4991938;28;20185;-74
2021/12/27 02:32:05;;;;;;;2.17;1.97;;;;;;;;;;4993788;28;20216;-74
2021/12/27 02:34:30;;;;;;;3.07;2.30;;;;;;;;;;4996254;28;20184;-74
2021/12/27 02:36:55;;;;;;;2.60;2.40;;;;;;;;;;4997140;28;20180;-74
2021/12/27 02:39:20;;;;;;;4.23;2.50;;;;;;;;;;4995139;28;20187;-74
2021/12/27 02:41:46;;;;;;;2.90;2.43;;;;;;;;;;4991397;28;20176;-74
2021/12/27 02:44:11;;;;;;;3.77;3.07;;;;;;;;;;4989354;28;20224;-74
2021/12/27 02:46:36;;;;;;;2.70;2.50;;;;;;;;;;4991251;28;20204;-74
2021/12/27 02:49:02;;;;;;;3.57;3.07;;;;;;;;;;4990351;28;20195;-74
2021/12/27 02:51:27;;;;;;;4.27;3.50;;;;;;;;;;4990515;28;20325;-73
2021/12/27 02:53:52;;;;;;;5.50;4.20;;;;;;;;;;4991849;28;20305;-74
2021/12/27 02:56:18;;;;;;;10.83;4.50;;;;;;;;;;4990243;28;20188;-74
2021/12/27 02:58:44;;;;;;;6.47;4.17;;;;;;;;;;4989547;28;20184;-74
2021/12/27 03:01:11;;;;;;;9.10;4.60;;;;;;;;;;4992991;28;20188;-74
2021/12/27 03:03:36;;;;;;;37.30;5.80;;;;;;;;;;4988108;28;20272;-74
2021/12/27 03:06:02;;;;;;;46.73;6.57;;;;;;;;;;4990125;28;20290;-74
2021/12/27 03:08:27;;;;;;;18.77;4.83;;;;;;;;;;5006574;28;20184;-74
2021/12/27 03:10:54;;;;;;;18.80;5.13;;;;;;;;;;4993259;28;20251;-74
2021/12/27 03:13:21;;;;;;;10.27;4.50;;;;;;;;;;4989021;28;20189;-74
2021/12/27 03:15:50;;;;;;;4.83;3.73;;;;;;;;;;4990504;28;20208;-74
2021/12/27 03:18:15;;;;;;;6.90;3.90;;;;;;;;;;4992798;28;20555;-74
2021/12/27 03:20:41;;;;;;;6.57;4.23;;;;;;;;;;4989062;28;20186;-74
2021/12/27 03:23:06;;;;;;;6.03;4.37;;;;;;;;;;4993765;28;20218;-74
2021/12/27 03:25:32;;;;;;;5.27;4.10;;;;;;;;;;4993287;28;20203;-74
2021/12/27 03:27:57;;;;;;;5.93;4.23;;;;;;;;;;4989479;28;20173;-74
2021/12/27 03:30:23;;;;;;;4.00;3.33;;;;;;;;;;4988639;28;20191;-74
2021/12/27 03:32:49;;;;;;;4.80;3.60;;;;;;;;;;4988568;28;20172;-74
2021/12/27 03:35:18;;;;;;;3.73;3.07;;;;;;;;;;4993838;28;20182;-74
2021/12/27 03:37:47;;;;;;;3.40;2.87;;;;;;;;;;4989670;28;20227;-74
2021/12/27 03:40:14;;;;;;;4.13;3.20;;;;;;;;;;4988740;28;20181;-74
2021/12/27 03:42:40;;;;;;;3.13;2.67;;;;;;;;;;4991083;28;20200;-74
2021/12/27 03:45:06;;;;;;;4.17;2.63;;;;;;;;;;4989470;28;20238;-74
2021/12/27 03:47:31;;;;;;;2.67;2.37;;;;;;;;;;4990502;28;20176;-74
2021/12/27 03:49:56;;;;;;;2.97;2.30;;;;;;;;;;4989104;28;20168;-74
2021/12/27 03:52:21;;;;;;;3.40;2.50;;;;;;;;;;4985614;28;20187;-74
2021/12/27 03:54:47;;;;;;;4.67;2.40;;;;;;;;;;4987838;28;20195;-74
2021/12/27 03:57:14;;;;;;;2.23;2.03;;;;;;;;;;4988044;28;20184;-74
2021/12/27 04:02:08;;;;;;;4.13;2.33;;;;;;;;;;4988696;28;20177;-74
2021/12/27 04:04:34;;;;;;;3.20;2.27;;;;;;;;;;4991015;28;20179;-74
2021/12/27 04:07:00;;;;;;;3.00;2.70;;;;;;;;;;4989866;28;20180;-74
2021/12/27 04:09:25;;;;;;;3.70;2.37;;;;;;;;;;4986679;28;20176;-74
2021/12/27 04:11:50;;;;;;;3.27;2.67;;;;;;;;;;4989902;28;20274;-74
2021/12/27 04:14:16;;;;;;;2.53;2.13;;;;;;;;;;4989480;28;20196;-74
2021/12/27 04:16:42;;;;;;;2.80;2.37;;;;;;;;;;4992201;28;20188;-74
2021/12/27 04:19:07;;;;;;;3.53;2.40;;;;;;;;;;4989730;28;20180;-74
2021/12/27 04:21:32;;;;;;;4.17;2.73;;;;;;;;;;4991636;28;20256;-74
2021/12/27 04:23:57;;;;;;;3.07;2.40;;;;;;;;;;4990812;28;20172;-74
2021/12/27 04:26:23;;;;;;;6.20;3.23;;;;;;;;;;4989981;28;20200;-74
2021/12/27 04:28:48;;;;;;;3.67;2.70;;;;;;;;;;4989868;28;20184;-74
2021/12/27 04:31:14;;;;;;;3.03;2.63;;;;;;;;;;4986715;28;20268;-74
2021/12/27 04:33:40;;;;;;;3.27;2.37;;;;;;;;;;4988296;28;20184;-74
2021/12/27 04:36:05;;;;;;;4.83;2.43;;;;;;;;;;4989775;28;20172;-74
2021/12/27 04:38:30;;;;;;;4.77;3.30;;;;;;;;;;4988768;28;20538;-74
2021/12/27 04:40:56;;;;;;;3.40;2.53;;;;;;;;;;4988792;28;20350;-74
2021/12/27 04:43:22;;;;;;;4.63;2.90;;;;;;;;;;4987734;28;20215;-74
2021/12/27 04:45:48;;;;;;;5.60;3.07;;;;;;;;;;4992037;28;20240;-74
2021/12/27 04:48:13;;;;;;;4.13;3.63;;;;;;;;;;4992922;28;20315;-74
2021/12/27 04:50:39;;;;;;;4.83;3.13;;;;;;;;;;4993203;28;20279;-74
2021/12/27 04:53:05;;;;;;;4.47;3.50;;;;;;;;;;4996696;28;20176;-74
2021/12/27 04:55:31;;;;;;;4.67;3.53;;;;;;;;;;4993481;28;20391;-74
2021/12/27 04:57:56;;;;;;;3.87;3.27;;;;;;;;;;4990851;28;20195;-74
2021/12/27 05:00:22;;;;;;;4.33;3.33;;;;;;;;;;4992263;28;20195;-74
2021/12/27 05:02:47;;;;;;;5.93;3.63;;;;;;;;;;4994051;28;20188;-74
2021/12/27 05:05:12;;;;;;;6.27;3.87;;;;;;;;;;4994076;28;20197;-74
2021/12/27 05:07:37;;;;;;;7.70;3.57;;;;;;;;;;4997230;28;20184;-74
2021/12/27 05:10:04;;;;;;;3.60;2.93;;;;;;;;;;4993508;28;20228;-74
2021/12/27 05:12:29;;;;;;;5.53;3.67;;;;;;;;;;4993970;28;20229;-74
2021/12/27 05:14:54;;;;;;;5.53;3.87;;;;;;;;;;4990506;28;20283;-74
2021/12/27 05:17:19;;;;;;;4.27;3.33;;;;;;;;;;4992174;28;20188;-74
2021/12/27 05:19:44;;;;;;;3.93;3.33;;;;;;;;;;4992949;28;20218;-74
2021/12/27 05:22:10;;;;;;;4.90;3.20;;;;;;;;;;4992946;28;20184;-74
2021/12/27 05:24:35;;;;;;;3.67;3.17;;;;;;;;;;4993668;28;20188;-74
2021/12/27 05:27:00;;;;;;;4.27;3.37;;;;;;;;;;4992543;28;20177;-74
2021/12/27 05:29:26;;;;;;;4.60;3.40;;;;;;;;;;4992056;28;20234;-74
2021/12/27 05:31:51;;;;;;;3.60;3.07;;;;;;;;;;4989497;28;20230;-74
2021/12/27 05:34:16;;;;;;;3.93;3.43;;;;;;;;;;4990970;28;20197;-74
2021/12/27 05:36:42;;;;;;;3.47;3.03;;;;;;;;;;4989746;28;20184;-74
2021/12/27 05:39:08;;;;;;;3.80;2.80;;;;;;;;;;4991729;28;20185;-74
2021/12/27 05:41:33;;;;;;;5.57;2.87;;;;;;;;;;4992166;28;20191;-74
2021/12/27 05:43:58;;;;;;;3.10;2.53;;;;;;;;;;4992727;28;20239;-74
2021/12/27 05:46:23;;;;;;;3.50;2.60;;;;;;;;;;4991176;28;20270;-74
2021/12/27 05:48:49;;;;;;;10.13;7.83;;;;;;;;;;4990471;28;20169;-74
2021/12/27 05:51:14;;;;;;;7.80;6.93;;;;;;;;;;4993255;28;20182;-74
2021/12/27 05:53:39;;;;;;;5.00;4.57;;;;;;;;;;4990279;28;20176;-74
2021/12/27 05:56:04;;;;;;;4.60;4.20;;;;;;;;;;4991952;28;20191;-74
2021/12/27 05:58:29;;;;;;;5.23;4.83;;;;;;;;;;4992689;28;20183;-74
2021/12/27 06:00:55;;;;;;;4.43;2.80;;;;;;;;;;4989949;28;20504;-74
2021/12/27 06:03:20;;;;;;;2.87;2.17;;;;;;;;;;4989939;28;20259;-74
2021/12/27 06:05:46;;;;;;;30.53;28.47;;;;;;;;;;4991260;28;20539;-74
2021/12/27 06:08:11;;;;;;;4.30;2.97;;;;;;;;;;4990773;28;20203;-74
2021/12/27 06:10:37;;;;;;;2.10;1.90;;;;;;;;;;4992376;28;20276;-74
2021/12/27 06:13:02;;;;;;;3.23;1.90;;;;;;;;;;4991719;28;20499;-74
2021/12/27 06:15:27;;;;;;;2.90;2.20;;;;;;;;;;4992277;28;20183;-74
2021/12/27 06:17:52;;;;;;;2.53;2.00;;;;;;;;;;4990044;28;20211;-74
2021/12/27 06:20:18;;;;;;;2.40;2.07;;;;;;;;;;5006044;28;20172;-74
2021/12/27 06:22:51;;;;;;;2.70;2.40;;;;;;;;;;4991742;28;20195;-74
2021/12/27 06:25:16;;;;;;;3.33;2.60;;;;;;;;;;4991407;28;20200;-74
2021/12/27 06:27:42;;;;;;;3.53;2.63;;;;;;;;;;4991803;28;20192;-74
2021/12/27 06:30:08;;;;;;;5.10;3.03;;;;;;;;;;4990520;28;20184;-74
2021/12/27 06:32:37;;;;;;;4.17;3.13;;;;;;;;;;4990722;28;20195;-74
2021/12/27 06:35:03;;;;;;;3.40;3.10;;;;;;;;;;4990780;28;20180;-74
2021/12/27 06:37:28;;;;;;;3.10;2.47;;;;;;;;;;4990749;28;20234;-74
2021/12/27 06:39:53;;;;;;;2.60;2.17;;;;;;;;;;4989840;28;20173;-74
2021/12/27 06:42:18;;;;;;;2.67;2.10;;;;;;;;;;4989594;28;20306;-74
2021/12/27 06:44:44;;;;;;;2.73;2.17;;;;;;;;;;4992428;28;20323;-74
2021/12/27 06:47:09;;;;;;;4.23;2.60;;;;;;;;;;4990688;28;20184;-74
2021/12/27 06:49:36;;;;;;;3.80;3.37;;;;;;;;;;4992047;28;20452;-74
2021/12/27 06:52:02;;;;;;;3.30;3.00;;;;;;;;;;4988988;28;20172;-74
2021/12/27 06:54:27;;;;;;;4.90;4.50;;;;;;;;;;4990871;28;20225;-74
2021/12/27 06:56:54;;;;;;;2.97;2.67;;;;;;;;;;4991164;28;20188;-74
2021/12/27 06:59:19;;;;;;;7.07;2.90;;;;;;;;;;4990656;28;20187;-74
2021/12/27 07:01:44;;;;;;;2.70;2.50;;;;;;;;;;4990799;28;20327;-74
2021/12/27 07:04:10;;;;;;;1.93;1.70;;;;;;;;;;4993844;28;20184;-74
2021/12/27 07:06:35;;;;;;;1.40;1.30;;;;;;;;;;4988752;28;20230;-74
2021/12/27 07:09:03;;;;;;;1.40;1.30;;;;;;;;;;4988440;28;20187;-74
2021/12/27 07:11:28;;;;;;;2.97;1.40;;;;;;;;;;4989943;28;20181;-74
2021/12/27 07:13:53;;;;;;;1.43;1.23;;;;;;;;;;4994497;28;20251;-74
2021/12/27 07:16:18;;;;;;;2.37;1.60;;;;;;;;;;4991645;28;20446;-74
2021/12/27 07:18:43;;;;;;;1.60;1.50;;;;;;;;;;4990146;28;20191;-74
2021/12/27 07:21:08;;;;;;;1.90;1.73;;;;;;;;;;4990808;28;20272;-74
2021/12/27 07:23:34;;;;;;;2.50;2.27;;;;;;;;;;4990808;28;20291;-74
2021/12/27 07:25:59;;;;;;;2.33;1.60;;;;;;;;;;4989711;28;20208;-74
2021/12/27 07:28:24;;;;;;;2.63;1.80;;;;;;;;;;4988432;28;20183;-74
2021/12/27 07:30:49;;;;;;;1.73;1.63;;;;;;;;;;4994325;28;20185;-74
2021/12/27 07:33:15;;;;;;;1.87;1.77;;;;;;;;;;4989803;28;20191;-74
2021/12/27 07:35:40;;;;;;;2.20;2.00;;;;;;;;;;4996766;28;20180;-74
2021/12/27 07:38:05;;;;;;;4.50;4.10;;;;;;;;;;4990936;28;20180;-74
2021/12/27 07:40:31;;;;;;;4.40;2.33;;;;;;;;;;5007696;28;20274;-74
2021/12/27 07:42:56;;;;;;;1.70;1.60;;;;;;;;;;4990896;28;20203;-74
2021/12/27 07:45:21;;;;;;;2.50;1.97;;;;;;;;;;4994104;28;20224;-74
2021/12/27 07:47:47;;;;;;;2.33;2.13;;;;;;;;;;5005735;28;20193;-74
2021/12/27 07:50:12;;;;;;;3.63;2.50;;;;;;;;;;4990169;28;20183;-74
2021/12/27 07:52:37;;;;;;;2.33;2.13;;;;;;;;;;4990983;28;20178;-74
2021/12/27 07:55:05;;;;;;;1.60;1.50;;;;;;;;;;4994580;28;20184;-74
2021/12/27 07:57:30;;;;;;;1.83;1.43;;;;;;;;;;5008802;28;20183;-74
2021/12/27 07:59:56;;;;;;;1.53;1.40;;;;;;;;;;4992386;28;20176;-74
2021/12/27 08:02:21;;;;;;;3.60;2.10;;;;;;;;;;4990256;28;20206;-74
2021/12/27 08:04:46;;;;;;;2.40;2.10;;;;;;;;;;5002720;28;20457;-74
2021/12/27 08:07:11;;;;;;;3.63;2.60;;;;;;;;;;4989536;28;20215;-74
2021/12/27 08:09:37;;;;;;;2.93;2.00;;;;;;;;;;4991046;28;20172;-74
2021/12/27 08:12:03;;;;;;;3.00;2.30;;;;;;;;;;4990716;28;20207;-74
2021/12/27 08:14:28;;;;;;;2.07;1.70;;;;;;;;;;4990590;28;20229;-74
2021/12/27 08:16:53;;;;;;;3.80;2.50;;;;;;;;;;4987977;28;20217;-74
2021/12/27 08:19:18;;;;;;;2.93;2.23;;;;;;;;;;4996129;28;20187;-74
2021/12/27 08:21:43;;;;;;;2.83;2.30;;;;;;;;;;4991860;28;20272;-74
2021/12/27 08:24:09;;;;;;;2.57;2.03;;;;;;;;;;4990323;28;20183;-74
2021/12/27 08:26:34;;;;;;;2.53;1.90;;;;;;;;;;4994304;28;20199;-74
2021/12/27 08:29:01;;;;;;;2.80;2.10;;;;;;;;;;4994300;28;20268;-74
2021/12/27 08:31:26;;;;;;;3.90;2.50;;;;;;;;;;4987893;28;20188;-74
2021/12/27 08:33:51;;;;;;;2.97;2.37;;;;;;;;;;4993837;28;20187;-74
2021/12/27 08:36:16;;;;;;;3.43;2.40;;;;;;;;;;4991719;28;20188;-74
2021/12/27 08:38:44;;;;;;;2.30;2.00;;;;;;;;;;4991917;28;20196;-74
2021/12/27 08:41:10;;;;;;;2.90;2.10;;;;;;;;;;4995688;28;20274;-74
2021/12/27 08:43:35;;;;;;;2.40;2.03;;;;;;;;;;4998005;28;20199;-74
2021/12/27 08:46:00;;;;;;;2.43;1.90;;;;;;;;;;4996703;28;20287;-74
2021/12/27 08:48:25;;;;;;;3.40;2.00;;;;;;;;;;4994824;28;20202;-74
2021/12/27 08:50:51;;;;;;;3.80;2.57;;;;;;;;;;5005045;28;20170;-74
2021/12/27 08:53:16;;;;;;;2.87;2.20;;;;;;;;;;4996893;28;20327;-74
2021/12/27 08:55:41;;;;;;;3.07;2.20;;;;;;;;;;4994957;28;20239;-74
2021/12/27 08:58:06;;;;;;;3.53;2.27;;;;;;;;;;4994617;28;20191;-74
2021/12/27 09:00:32;;;;;;;2.83;2.17;;;;;;;;;;4994617;28;20176;-74
2021/12/27 09:02:57;;;;;;;3.53;2.63;;;;;;;;;;4991507;28;20174;-74
2021/12/27 09:05:22;;;;;;;4.63;3.20;;;;;;;;;;4993731;28;20223;-74
2021/12/27 09:07:47;;;;;;;4.60;3.17;;;;;;;;;;4996976;28;20184;-74
2021/12/27 09:10:13;;;;;;;4.60;3.27;;;;;;;;;;4992720;28;20319;-74
2021/12/27 09:12:40;;;;;;;6.80;3.13;;;;;;;;;;4992026;28;20179;-74
2021/12/27 09:15:05;;;;;;;7.00;4.23;;;;;;;;;;4992217;28;20200;-74
2021/12/27 09:17:30;;;;;;;10.40;5.23;;;;;;;;;;4992111;28;20194;-74
2021/12/27 09:19:56;;;;;;;17.50;10.63;;;;;;;;;;4994114;28;20251;-74
2021/12/27 09:22:21;;;;;;;18.20;5.50;;;;;;;;;;4992685;28;20203;-74
2021/12/27 09:24:46;;;;;;;11.80;4.90;;;;;;;;;;4991627;28;20238;-74
2021/12/27 09:27:12;;;;;;;9.40;4.67;;;;;;;;;;4995147;28;20172;-74
2021/12/27 09:29:37;;;;;;;7.70;4.37;;;;;;;;;;4993506;28;20180;-74
2021/12/27 09:32:02;;;;;;;5.47;3.80;;;;;;;;;;4992030;28;20180;-74
2021/12/27 09:34:28;;;;;;;6.13;4.33;;;;;;;;;;4992546;28;20234;-74
2021/12/27 09:36:53;;;;;;;5.07;3.80;;;;;;;;;;4993085;28;20184;-74
2021/12/27 09:39:18;;;;;;;6.07;3.93;;;;;;;;;;4996786;28;20176;-74
2021/12/27 09:41:44;;;;;;;7.60;4.30;;;;;;;;;;4992172;28;20196;-74
2021/12/27 09:44:09;;;;;;;5.57;4.20;;;;;;;;;;4991889;28;20259;-74
2021/12/27 09:46:35;;;;;;;8.53;5.53;;;;;;;;;;4992111;28;20268;-74
2021/12/27 09:49:02;;;;;;;6.10;4.00;;;;;;;;;;4995191;28;20180;-74
2021/12/27 09:51:30;;;;;;;6.83;4.00;;;;;;;;;;4990416;28;20200;-74
2021/12/27 09:53:55;;;;;;;6.00;3.87;;;;;;;;;;4992908;28;20262;-74
2021/12/27 09:56:20;;;;;;;7.30;4.23;;;;;;;;;;4996439;28;20273;-74
2021/12/27 09:58:46;;;;;;;6.70;4.20;;;;;;;;;;4989739;28;20479;-74
2021/12/27 10:01:11;;;;;;;31.23;16.03;;;;;;;;;;4985406;28;20224;-74
2021/12/27 10:03:45;;;;;;;14.60;11.00;;;;;;;;;;4991438;28;20197;-74
2021/12/27 10:06:11;;;;;;;11.40;7.80;;;;;;;;;;5006506;28;20215;-74
2021/12/27 10:08:37;;;;;;;6.67;5.00;;;;;;;;;;4993816;28;20172;-74
2021/12/27 10:11:02;;;;;;;8.33;4.83;;;;;;;;;;4993593;28;20178;-74
2021/12/27 10:13:28;;;;;;;8.00;5.40;;;;;;;;;;5007702;28;20209;-74
2021/12/27 10:15:54;;;;;;;10.40;5.40;;;;;;;;;;4990127;28;20172;-74
2021/12/27 10:18:19;;;;;;;16.93;6.17;;;;;;;;;;4989382;28;20182;-74
2021/12/27 10:20:45;;;;;;;9.27;4.80;;;;;;;;;;4991084;28;20188;-74
2021/12/27 10:23:12;;;;;;;8.40;5.03;;;;;;;;;;4990772;28;20206;-74
2021/12/27 10:25:37;;;;;;;6.77;4.67;;;;;;;;;;4993241;28;20254;-74
2021/12/27 10:28:03;;;;;;;4.27;3.43;;;;;;;;;;4992792;28;20168;-74
2021/12/27 10:30:31;;;;;;;4.70;3.17;;;;;;;;;;4989551;28;20178;-74
2021/12/27 10:33:19;;;;;;;4.90;3.93;;;;;;;;;;5007677;28;20191;-74
2021/12/27 10:35:47;;;;;;;4.80;4.30;;;;;;;;;;4989082;28;20203;-74
2021/12/27 10:38:16;;;;;;;4.60;2.87;;;;;;;;;;4991136;28;20232;-74
2021/12/27 10:41:09;;;;;;;4.13;3.37;;;;;;;;;;5004757;28;20176;-74
2021/12/27 10:43:40;;;;;;;6.37;3.70;;;;;;;;;;4991036;28;20228;-74
2021/12/27 10:46:07;;;;;;;4.10;3.00;;;;;;;;;;4993708;28;20216;-74
2021/12/27 10:48:33;;;;;;;5.27;3.50;;;;;;;;;;4996072;28;20214;-74
2021/12/27 10:50:58;;;;;;;5.20;4.40;;;;;;;;;;5006224;28;20177;-74
2021/12/27 10:53:24;;;;;;;5.70;3.50;;;;;;;;;;4989957;28;20184;-74
2021/12/27 10:55:50;;;;;;;4.87;4.10;;;;;;;;;;4990693;28;20192;-74
2021/12/27 10:58:23;;;;;;;4.17;3.77;;;;;;;;;;4991890;28;20199;-74
2021/12/27 11:00:54;;;;;;;4.57;3.60;;;;;;;;;;4990508;28;20204;-74
2021/12/27 11:03:22;;;;;;;5.40;3.93;;;;;;;;;;4991758;28;20184;-74
2021/12/27 11:05:48;;;;;;;4.77;4.00;;;;;;;;;;4996366;28;20203;-74
2021/12/27 11:08:13;;;;;;;5.10;4.03;;;;;;;;;;4994889;28;20181;-74
2021/12/27 11:10:38;;;;;;;4.93;3.40;;;;;;;;;;4997293;28;20183;-74
2021/12/27 11:13:04;;;;;;;6.07;4.17;;;;;;;;;;4991724;28;20180;-74
2021/12/27 11:15:30;;;;;;;5.13;3.50;;;;;;;;;;4990656;28;20451;-74
2021/12/27 11:17:56;;;;;;;4.70;3.67;;;;;;;;;;4990653;28;20188;-74
2021/12/27 11:20:21;;;;;;;5.07;4.03;;;;;;;;;;4991995;28;20192;-74
2021/12/27 11:22:49;;;;;;;4.97;3.80;;;;;;;;;;4989463;28;20190;-74
2021/12/27 11:25:22;;;;;;;4.07;3.60;;;;;;;;;;4988905;28;20212;-74
2021/12/27 11:27:48;;;;;;;4.33;3.43;;;;;;;;;;4990795;28;20178;-74
2021/12/27 11:30:16;;;;;;;4.63;3.97;;;;;;;;;;4990378;28;20211;-74
2021/12/27 11:32:59;;;;;;;5.80;3.93;;;;;;;;;;4992312;28;20176;-74
2021/12/27 11:35:25;;;;;;;5.53;4.33;;;;;;;;;;4990538;28;20182;-74
2021/12/27 11:37:51;;;;;;;5.67;4.13;;;;;;;;;;4993716;28;20191;-74
2021/12/27 11:40:17;;;;;;;5.67;4.07;;;;;;;;;;4991298;28;20254;-74
2021/12/27 11:42:55;;;;;;;5.13;4.07;;;;;;;;;;4990252;28;20260;-74
2021/12/27 11:45:40;;;;;;;6.77;4.40;;;;;;;;;;4992962;28;20318;-74
2021/12/27 11:48:09;;;;;;;6.13;4.53;;;;;;;;;;4990299;28;20180;-74
2021/12/27 11:50:53;;;;;;;5.80;3.87;;;;;;;;;;4990349;28;20195;-74
2021/12/27 11:53:29;;;;;;;6.20;4.13;;;;;;;;;;5002720;28;20178;-74
2021/12/27 11:55:54;;;;;;;9.57;5.50;;;;;;;;;;5004687;28;20311;-74
2021/12/27 11:58:39;;;;;;;12.70;7.97;;;;;;;;;;4992155;28;20254;-74
2021/12/27 12:01:20;;;;;;;6.90;5.07;;;;;;;;;;4990579;28;20229;-74
2021/12/27 12:03:45;;;;;;;7.93;5.10;;;;;;;;;;5004039;28;20181;-74
2021/12/27 12:06:29;;;;;;;8.43;6.73;;;;;;;;;;4989325;28;20203;-74
2021/12/27 12:08:56;;;;;;;8.97;6.23;;;;;;;;;;5005836;28;20181;-74
2021/12/27 12:11:31;;;;;;;7.00;5.57;;;;;;;;;;4992143;28;20169;-74
2021/12/27 12:13:59;;;;;;;10.03;7.13;;;;;;;;;;4989896;28;20195;-74
2021/12/27 12:16:25;;;;;;;6.90;5.07;;;;;;;;;;4989949;28;20182;-74
2021/12/27 12:18:51;;;;;;;8.10;5.57;;;;;;;;;;4988253;28;20176;-74
2021/12/27 12:21:42;;;;;;;6.85;5.70;;;;;;;;;;4989812;28;20200;-74
2021/12/27 12:24:10;;;;;;;7.00;5.97;;;;;;;;;;4993488;28;20196;-74
2021/12/27 12:26:49;;;;;;;9.30;6.93;;;;;;;;;;4990466;28;20299;-74
2021/12/27 12:29:15;;;;;;;8.63;5.90;;;;;;;;;;4982956;28;20279;-74
2021/12/27 12:31:40;;;;;;;8.00;5.50;;;;;;;;;;4988186;28;20261;-74
2021/12/27 12:34:13;;;;;;;9.37;5.60;;;;;;;;;;4990392;28;20180;-74
2021/12/27 12:36:49;;;;;;;7.90;6.00;;;;;;;;;;5004712;28;20192;-74
2021/12/27 12:39:15;;;;;;;7.00;4.83;;;;;;;;;;4990936;28;20323;-74
2021/12/27 12:41:40;;;;;;;7.50;5.60;;;;;;;;;;4992957;28;20270;-74
2021/12/27 12:44:06;;;;;;;8.37;6.23;;;;;;;;;;4995991;28;20291;-74
2021/12/27 12:46:49;;;;;;;9.13;5.50;;;;;;;;;;4990469;28;20227;-74
2021/12/27 12:49:22;;;;;;;7.70;4.97;;;;;;;;;;4989107;28;20177;-74
2021/12/27 12:51:47;;;;;;;6.90;4.87;;;;;;;;;;4989400;28;20187;-74
2021/12/27 12:54:25;;;;;;;7.33;5.50;;;;;;;;;;4990940;28;20249;-74
2021/12/27 12:56:50;;;;;;;8.93;6.33;;;;;;;;;;4988873;28;20180;-74
2021/12/27 12:59:26;;;;;;;8.40;6.10;;;;;;;;;;4989381;28;20184;-74
2021/12/27 13:01:52;;;;;;;6.10;4.87;;;;;;;;;;4989914;28;20182;-74
2021/12/27 13:04:18;;;;;;;7.50;5.40;;;;;;;;;;4988544;28;20180;-74
2021/12/27 13:06:46;;;;;;;8.60;5.50;;;;;;;;;;4994972;28;20202;-74
2021/12/27 13:09:11;;;;;;;8.33;6.27;;;;;;;;;;4992144;28;20180;-74
2021/12/27 13:11:38;;;;;;;7.30;5.60;;;;;;;;;;4994609;28;20235;-74
2021/12/27 13:14:04;;;;;;;8.47;5.57;;;;;;;;;;4992257;28;20181;-74
2021/12/27 13:16:30;;;;;;;6.63;4.57;;;;;;;;;;4993465;28;20193;-74
2021/12/27 13:18:55;;;;;;;6.70;4.93;;;;;;;;;;4994033;28;20176;-74
2021/12/27 13:21:20;;;;;;;5.63;4.70;;;;;;;;;;4992662;28;20270;-74
2021/12/27 13:23:45;;;;;;;7.33;5.03;;;;;;;;;;4991853;28;20180;-74
2021/12/27 13:26:12;;;;;;;7.20;4.90;;;;;;;;;;4991241;28;20289;-74
2021/12/27 13:28:45;;;;;;;8.50;5.37;;;;;;;;;;4993139;28;20182;-74
2021/12/27 13:31:17;;;;;;;7.43;5.87;;;;;;;;;;4991958;28;20191;-74
2021/12/27 13:33:53;;;;;;;6.90;5.50;;;;;;;;;;4992714;28;20174;-74
2021/12/27 13:36:26;;;;;;;6.37;5.07;;;;;;;;;;4994391;28;20180;-74
2021/12/27 13:39:03;;;;;;;6.53;5.23;;;;;;;;;;5010991;28;20210;-74
2021/12/27 13:41:30;;;;;;;7.10;5.43;;;;;;;;;;4991224;28;20188;-74
2021/12/27 13:44:00;;;;;;;8.33;5.83;;;;;;;;;;4998373;28;20243;-74
2021/12/27 13:46:33;;;;;;;8.60;6.70;;;;;;;;;;4992228;28;20212;-74
2021/12/27 13:49:00;;;;;;;8.13;5.17;;;;;;;;;;4994366;28;20261;-74
2021/12/27 13:51:28;;;;;;;9.33;5.37;;;;;;;;;;4992675;28;20257;-75
2021/12/27 13:53:53;;;;;;;6.77;5.90;;;;;;;;;;4992625;28;20182;-74
2021/12/27 13:56:18;;;;;;;7.65;5.30;;;;;;;;;;4995146;28;20174;-74
2021/12/27 13:58:45;;;;;;;7.80;5.60;;;;;;;;;;4990958;28;20187;-74
2021/12/27 14:01:11;;;;;;;9.80;6.40;;;;;;;;;;4994962;28;20178;-74
2021/12/27 14:03:37;;;;;;;7.90;6.10;;;;;;;;;;4989797;28;20276;-74
2021/12/27 14:06:03;;;;;;;8.77;5.13;;;;;;;;;;4993205;28;20384;-74
2021/12/27 14:08:30;;;;;;;8.07;5.33;;;;;;;;;;4990461;28;20173;-74
2021/12/27 14:11:21;;;;;;;10.30;7.03;;;;;;;;;;4993995;28;20196;-74
2021/12/27 14:13:57;;;;;;;8.60;6.13;;;;;;;;;;4996313;28;20364;-74
2021/12/27 14:16:23;;;;;;;8.50;7.47;;;;;;;;;;4990819;28;20184;-74
2021/12/27 14:19:04;;;;;;;7.97;6.83;;;;;;;;;;4992255;28;20239;-74
2021/12/27 14:21:30;;;;;;;9.43;6.87;;;;;;;;;;5004047;28;20263;-74
2021/12/27 14:24:02;;;;;;;9.40;7.33;;;;;;;;;;4993729;28;20279;-74
2021/12/27 14:26:27;;;;;;;9.30;7.87;;;;;;;;;;5006538;28;20256;-74
2021/12/27 14:28:52;;;;;;;10.00;7.67;;;;;;;;;;4990362;28;20196;-74
2021/12/27 14:31:24;;;;;;;10.53;7.90;;;;;;;;;;4989963;28;20184;-74
2021/12/27 14:33:49;;;;;;;10.00;7.40;;;;;;;;;;4991394;28;20258;-74
2021/12/27 14:36:15;;;;;;;11.00;8.37;;;;;;;;;;4992895;28;20200;-74
2021/12/27 14:38:40;;;;;;;10.57;7.50;;;;;;;;;;4991585;28;20188;-74
2021/12/27 14:41:05;;;;;;;8.33;6.90;;;;;;;;;;4987641;28;20177;-74
2021/12/27 14:43:33;;;;;;;10.13;6.87;;;;;;;;;;4990112;28;20208;-74